Time;durP1;ratioP1;P1;durP2;ratioP2;P2;SDS_P1;SDS_P2;PMS_P1;PMS_P2;Temp;Humidity;BMP_temperature;BMP_pressure;BME280_temperature;BME280_humidity;BME280_pressure;Samples;Min_cycle;Max_cycle;Signal;HPM_P1;HPM_P2
2022/06/09 00:00:19;;;;;;;6.70;2.90;;;;;;;17.17;100.00;97444.45;1711627;82;28197;-88
2022/06/09 00:02:50;;;;;;;2.58;2.12;;;;;;;17.18;100.00;97445.61;1664540;84;28138;-91
2022/06/09 00:05:23;;;;;;;2.75;2.20;;;;;;;17.07;100.00;97415.06;1631770;86;28110;-86
2022/06/09 00:07:51;;;;;;;3.65;2.20;;;;;;;16.92;100.00;97400.11;1664441;85;28097;-86
2022/06/09 00:10:21;;;;;;;2.55;2.17;;;;;;;16.79;100.00;97395.39;1668296;84;28168;-91
2022/06/09 00:12:47;;;;;;;3.85;2.45;;;;;;;16.69;100.00;97381.03;1630675;87;28071;-90
2022/06/09 00:15:14;;;;;;;2.62;2.30;;;;;;;16.64;100.00;97378.08;1633846;85;28132;-90
2022/06/09 00:17:41;;;;;;;2.72;2.47;;;;;;;16.69;100.00;97383.67;1661922;84;28088;-86
2022/06/09 00:20:12;;;;;;;2.50;2.30;;;;;;;16.79;100.00;97366.33;1669961;84;28190;-90
2022/06/09 00:22:39;;;;;;;2.42;2.10;;;;;;;16.84;100.00;97361.34;1660880;85;28028;-90
2022/06/09 00:25:06;;;;;;;2.22;2.02;;;;;;;16.87;100.00;97362.30;1663774;84;28073;-90
2022/06/09 00:27:32;;;;;;;2.27;2.08;;;;;;;16.85;100.00;97359.53;1633277;86;28019;-86
2022/06/09 00:29:58;;;;;;;5.05;2.67;;;;;;;16.79;100.00;97351.79;1674247;84;28124;-87
2022/06/09 00:32:24;;;;;;;2.80;2.25;;;;;;;16.71;100.00;97342.56;1672074;83;28165;-87
2022/06/09 00:34:53;;;;;;;3.60;2.15;;;;;;;16.70;100.00;97340.91;1634480;87;28267;-88
2022/06/09 00:37:20;;;;;;;3.77;2.17;;;;;;;16.73;100.00;97343.23;1648909;85;28074;-88
2022/06/09 00:39:46;;;;;;;2.62;2.42;;;;;;;16.78;100.00;97340.06;1678656;83;28136;-88
2022/06/09 00:42:12;;;;;;;5.78;2.15;;;;;;;16.91;100.00;97344.30;1681916;83;28156;-88
2022/06/09 00:44:38;;;;;;;3.15;2.42;;;;;;;17.07;100.00;97336.28;1679517;84;28103;-88
2022/06/09 00:47:14;;;;;;;3.55;2.15;;;;;;;17.18;100.00;97339.02;1681371;84;28065;-88
2022/06/09 00:49:49;;;;;;;5.28;2.58;;;;;;;17.19;100.00;97331.39;1678555;83;28159;-87
2022/06/09 00:52:19;;;;;;;3.40;2.25;;;;;;;17.12;100.00;97329.97;1685130;82;28084;-88
2022/06/09 00:54:52;;;;;;;2.42;2.20;;;;;;;17.07;100.00;97327.83;1680979;84;28155;-88
2022/06/09 00:57:21;;;;;;;4.45;2.15;;;;;;;17.13;100.00;97327.13;1678719;83;28133;-88
2022/06/09 00:59:53;;;;;;;2.62;2.20;;;;;;;17.25;100.00;97327.55;1680281;82;28139;-88
2022/06/09 01:02:22;;;;;;;3.95;2.25;;;;;;;17.26;100.00;97323.91;1680737;84;28096;-88
2022/06/09 01:04:52;;;;;;;2.45;2.25;;;;;;;17.20;100.00;97325.11;1680194;83;28062;-87
2022/06/09 01:07:30;;;;;;;5.20;2.37;;;;;;;17.11;100.00;97325.18;1679552;83;28081;-88
2022/06/09 01:10:00;;;;;;;3.30;2.12;;;;;;;17.03;100.00;97327.86;1679934;84;28061;-88
2022/06/09 01:12:30;;;;;;;4.30;2.62;;;;;;;16.92;100.00;97324.28;1678554;84;28117;-87
2022/06/09 01:15:03;;;;;;;2.30;1.70;;;;;;;16.83;100.00;97320.05;1681964;82;28002;-86
2022/06/09 01:18:10;;;;;;;3.70;2.10;;;;;;;16.87;100.00;97316.55;1680656;83;28148;-88
2022/06/09 01:20:58;;;;;;;2.10;2.00;;;;;;;16.99;100.00;97310.70;1678526;84;28081;-88
2022/06/09 01:24:00;;;;;;;4.75;2.70;;;;;;;17.07;100.00;97306.67;1677983;84;28083;-90
2022/06/09 01:26:39;;;;;;;4.75;2.62;;;;;;;17.10;100.00;97306.84;1679385;84;28100;-90
2022/06/09 01:29:42;;;;;;;2.50;2.30;;;;;;;17.20;100.00;97311.89;1680068;84;28146;-91
2022/06/09 01:32:18;;;;;;;3.40;2.47;;;;;;;17.17;100.00;97303.83;1681742;83;28097;-87
2022/06/09 01:35:15;;;;;;;3.65;2.45;;;;;;;17.04;100.00;97301.75;1660418;84;28034;-86
2022/06/09 01:37:46;;;;;;;6.70;3.05;;;;;;;16.90;100.00;97293.76;1658859;84;28240;-87
2022/06/09 01:40:16;;;;;;;4.62;3.12;;;;;;;16.77;100.00;97291.67;1697449;84;28070;-90
2022/06/09 01:42:46;;;;;;;4.67;2.90;;;;;;;16.71;100.00;97287.91;1695750;82;28086;-90
2022/06/09 01:45:38;;;;;;;4.67;2.22;;;;;;;16.66;100.00;97290.74;1697928;82;28149;-90
2022/06/09 01:48:13;;;;;;;3.45;3.12;;;;;;;16.64;100.00;97288.27;1704465;82;28151;-86
2022/06/09 01:51:03;;;;;;;5.22;2.75;;;;;;;16.58;100.00;97289.45;1695452;84;28167;-87
2022/06/09 01:53:39;;;;;;;2.85;2.65;;;;;;;16.52;100.00;97290.13;1664176;85;28138;-87
2022/06/09 01:56:09;;;;;;;4.83;2.87;;;;;;;16.45;100.00;97291.80;1662701;84;28061;-87
2022/06/09 01:58:51;;;;;;;3.40;2.77;;;;;;;16.44;100.00;97290.16;1665076;84;28066;-88
2022/06/09 02:01:21;;;;;;;2.92;2.52;;;;;;;16.37;100.00;97291.33;1659785;84;28164;-88
2022/06/09 02:03:56;;;;;;;6.47;2.70;;;;;;;16.31;100.00;97292.01;1669857;85;28030;-87
2022/06/09 02:06:21;;;;;;;6.60;2.67;;;;;;;16.31;100.00;97294.16;1696944;83;28036;-88
2022/06/09 02:08:48;;;;;;;5.62;2.90;;;;;;;16.32;100.00;97292.34;1662601;84;28091;-86
2022/06/09 02:11:15;;;;;;;4.37;3.33;;;;;;;16.29;100.00;97286.09;1634522;85;28037;-86
2022/06/09 02:13:52;;;;;;;6.22;2.83;;;;;;;16.29;100.00;97287.41;1669995;84;28147;-86
2022/06/09 02:16:22;;;;;;;3.17;2.87;;;;;;;16.29;100.00;97292.20;1666525;85;28074;-88
2022/06/09 02:18:54;;;;;;;3.37;2.70;;;;;;;16.32;100.00;97291.84;1663063;85;28073;-88
2022/06/09 02:21:24;;;;;;;3.33;2.52;;;;;;;16.37;100.00;97291.83;1633837;87;28117;-88
2022/06/09 02:23:58;;;;;;;4.10;2.85;;;;;;;16.50;100.00;97298.71;1633390;87;28090;-88
2022/06/09 02:26:28;;;;;;;2.40;2.20;;;;;;;16.71;100.00;97306.90;1664757;85;28189;-88
2022/06/09 02:28:54;;;;;;;2.30;2.10;;;;;;;16.82;100.00;97307.00;1663469;85;28105;-88
2022/06/09 02:31:27;;;;;;;2.67;2.12;;;;;;;16.80;100.00;97313.77;1635541;87;28130;-88
2022/06/09 02:34:01;;;;;;;6.22;2.50;;;;;;;16.75;100.00;97315.32;1663799;84;28135;-88
2022/06/09 02:36:28;;;;;;;2.75;2.45;;;;;;;16.63;100.00;97312.23;1635784;87;28128;-88
2022/06/09 02:38:54;;;;;;;4.08;2.37;;;;;;;16.49;100.00;97314.23;1699488;84;28076;-87
2022/06/09 02:41:20;;;;;;;3.37;2.70;;;;;;;16.42;100.00;97321.21;1665592;84;28189;-88
2022/06/09 02:43:46;;;;;;;3.70;2.67;;;;;;;16.40;100.00;97323.19;1634310;87;28109;-87
2022/06/09 02:46:12;;;;;;;2.98;2.20;;;;;;;16.39;100.00;97320.22;1673714;84;28091;-87
2022/06/09 02:48:40;;;;;;;3.98;2.90;;;;;;;16.37;100.00;97323.02;1697787;83;28060;-87
2022/06/09 02:51:19;;;;;;;4.15;2.47;;;;;;;16.29;100.00;97324.38;1660281;85;28067;-88
2022/06/09 02:53:46;;;;;;;6.80;3.30;;;;;;;16.25;100.00;97331.83;1635304;87;28067;-91
2022/06/09 02:56:12;;;;;;;4.15;3.58;;;;;;;16.17;100.00;97331.83;1671988;84;28111;-87
2022/06/09 02:58:38;;;;;;;3.72;3.40;;;;;;;16.14;100.00;97338.78;1695958;83;28000;-90
2022/06/09 03:01:04;;;;;;;4.92;4.10;;;;;;;16.15;100.00;97334.30;1698933;84;28018;-90
2022/06/09 03:03:32;;;;;;;4.97;3.50;;;;;;;16.19;100.00;97337.78;1697501;83;28073;-89
2022/06/09 03:05:58;;;;;;;5.65;3.80;;;;;;;16.31;100.00;97349.60;1695648;83;28107;-88
2022/06/09 03:08:26;;;;;;;4.45;3.80;;;;;;;16.35;100.00;97340.04;1695321;83;28151;-90
2022/06/09 03:10:58;;;;;;;4.58;4.17;;;;;;;16.38;100.00;97346.28;1661326;84;28093;-88
2022/06/09 03:13:24;;;;;;;3.80;2.98;;;;;;;16.38;100.00;97341.00;1635699;87;28046;-87
2022/06/09 03:15:56;;;;;;;4.62;3.25;;;;;;;16.38;100.00;97337.05;1666535;85;28505;-87
2022/06/09 03:18:23;;;;;;;;;;;;;;;16.43;100.00;97338.19;1672287;85;28093;-88
2022/06/09 03:20:50;;;;;;;3.75;3.27;;;;;;;16.48;100.00;97338.98;1665983;85;25984;-87
2022/06/09 03:23:25;;;;;;;5.37;3.85;;;;;;;16.52;100.00;97333.22;1665386;85;28004;-88
2022/06/09 03:25:51;;;;;;;4.05;3.65;;;;;;;16.63;100.00;97330.23;1638664;87;28066;-90
2022/06/09 03:28:20;;;;;;;5.58;4.12;;;;;;;16.70;100.00;97335.63;1697434;84;43086;-88
2022/06/09 03:30:46;;;;;;;4.90;3.47;;;;;;;16.84;100.00;97338.88;1665722;84;28073;-89
2022/06/09 03:33:13;;;;;;;7.80;3.77;;;;;;;16.93;100.00;97343.12;1663294;85;28170;-88
2022/06/09 03:35:39;;;;;;;4.92;3.75;;;;;;;17.02;100.00;97349.20;1698562;83;28053;-88
2022/06/09 03:38:05;;;;;;;4.30;3.17;;;;;;;17.11;100.00;97351.62;1696611;83;28067;-88
2022/06/09 03:40:32;;;;;;;4.20;3.77;;;;;;;17.18;100.00;97349.60;1695663;82;28072;-87
2022/06/09 03:43:02;;;;;;;4.75;3.72;;;;;;;17.33;100.00;97355.78;1690303;82;28112;-87
2022/06/09 03:45:31;;;;;;;6.05;3.70;;;;;;;17.49;100.00;97351.69;1692041;84;28096;-87
2022/06/09 03:48:00;;;;;;;6.20;3.67;;;;;;;17.50;100.00;97352.84;1694914;83;28017;-87
2022/06/09 03:50:29;;;;;;;6.15;3.37;;;;;;;17.42;100.00;97355.53;1692932;82;28056;-89
2022/06/09 03:53:01;;;;;;;4.62;3.62;;;;;;;17.34;100.00;97356.10;1693637;82;28152;-86
2022/06/09 03:55:30;;;;;;;5.15;3.33;;;;;;;17.28;100.00;97349.70;1695557;83;28105;-86
2022/06/09 03:57:58;;;;;;;3.92;3.52;;;;;;;17.25;100.00;97355.81;1692523;83;28097;-86
2022/06/09 04:00:28;;;;;;;4.37;3.42;;;;;;;17.39;100.00;97357.22;1693518;83;28198;-86
2022/06/09 04:02:54;;;;;;;4.12;3.52;;;;;;;17.56;100.00;97356.08;1694771;83;28089;-86
2022/06/09 04:05:23;;;;;;;4.40;3.87;;;;;;;17.70;100.00;97353.20;1693539;82;28178;-86
2022/06/09 04:07:51;;;;;;;5.10;4.37;;;;;;;17.81;100.00;97356.75;1694100;84;28017;-86
2022/06/09 04:10:26;;;;;;;4.95;4.25;;;;;;;17.87;100.00;97349.92;1694854;83;28065;-87
2022/06/09 04:12:53;;;;;;;6.40;3.58;;;;;;;17.85;100.00;97355.89;1693253;83;28068;-86
2022/06/09 04:15:20;;;;;;;5.70;3.90;;;;;;;17.89;100.00;97351.91;1694617;82;28014;-86
2022/06/09 04:17:55;;;;;;;5.08;3.98;;;;;;;17.83;100.00;97352.61;1691462;82;28073;-86
2022/06/09 04:20:25;;;;;;;5.92;3.70;;;;;;;17.88;100.00;97358.19;1697069;83;28077;-89
2022/06/09 04:23:00;;;;;;;5.62;3.70;;;;;;;17.87;100.00;97356.54;1693263;82;28120;-86
2022/06/09 04:25:26;;;;;;;5.58;4.20;;;;;;;17.95;100.00;97362.57;1692546;84;28071;-89
2022/06/09 04:27:52;;;;;;;4.85;3.65;;;;;;;18.05;100.00;97359.69;1694872;83;28111;-86
2022/06/09 04:30:20;;;;;;;5.87;3.45;;;;;;;18.13;100.00;97360.09;1696316;82;28073;-86
2022/06/09 04:32:46;;;;;;;5.20;3.40;;;;;;;18.16;100.00;97360.58;1691161;84;28061;-89
2022/06/09 04:35:12;;;;;;;4.40;3.65;;;;;;;18.03;100.00;97366.16;1681803;83;28177;-89
2022/06/09 04:37:59;;;;;;;4.58;3.50;;;;;;;17.95;100.00;97367.04;1680744;82;28096;-86
2022/06/09 04:40:28;;;;;;;5.15;3.60;;;;;;;18.00;100.00;97368.68;1684334;82;28152;-87
2022/06/09 04:42:54;;;;;;;5.67;3.83;;;;;;;18.05;100.00;97376.08;1677681;83;28106;-89
2022/06/09 04:45:21;;;;;;;5.62;3.37;;;;;;;18.08;100.00;97369.91;1678552;84;28132;-89
2022/06/09 04:47:47;;;;;;;3.90;3.40;;;;;;;18.09;100.00;97375.53;1678214;83;28105;-89
2022/06/09 04:50:16;;;;;;;5.40;4.05;;;;;;;18.15;100.00;97372.66;1680592;83;28061;-87
2022/06/09 04:52:42;;;;;;;6.75;3.90;;;;;;;18.26;100.00;97374.38;1679150;84;28085;-86
2022/06/09 04:55:09;;;;;;;7.53;4.17;;;;;;;18.31;100.00;97365.38;1679094;84;28018;-86
2022/06/09 04:57:35;;;;;;;5.03;4.42;;;;;;;18.29;100.00;97368.70;1678825;83;28168;-86
2022/06/09 05:00:01;;;;;;;5.60;4.10;;;;;;;18.32;100.00;97372.83;1678288;84;28081;-86
2022/06/09 05:02:27;;;;;;;5.40;4.62;;;;;;;18.35;100.00;97375.10;1681355;84;28020;-90
2022/06/09 05:04:56;;;;;;;5.05;3.65;;;;;;;18.28;100.00;97382.12;1680829;84;28065;-86
2022/06/09 05:07:23;;;;;;;4.70;4.10;;;;;;;18.19;100.00;97388.51;1681507;84;28051;-86
2022/06/09 05:09:50;;;;;;;4.45;3.67;;;;;;;18.08;100.00;97381.00;1679935;84;28131;-86
2022/06/09 05:12:16;;;;;;;6.42;4.62;;;;;;;17.97;100.00;97384.41;1681719;83;28020;-85
2022/06/09 05:14:42;;;;;;;4.70;3.95;;;;;;;17.94;100.00;97383.95;1680834;84;28143;-86
2022/06/09 05:17:08;;;;;;;5.37;4.42;;;;;;;17.90;100.00;97390.08;1680795;84;28091;-86
2022/06/09 05:19:34;;;;;;;7.37;4.65;;;;;;;17.96;100.00;97393.34;1681426;83;28073;-87
2022/06/09 05:22:00;;;;;;;7.85;4.03;;;;;;;18.14;100.00;97395.67;1680532;84;28170;-89
2022/06/09 05:24:26;;;;;;;6.45;4.20;;;;;;;18.26;100.00;97396.89;1680261;83;43035;-89
2022/06/09 05:26:52;;;;;;;5.08;4.40;;;;;;;18.33;100.00;97394.31;1680396;83;28054;-87
2022/06/09 05:29:19;;;;;;;5.47;4.45;;;;;;;18.29;100.00;97403.63;1681230;83;28115;-86
2022/06/09 05:31:45;;;;;;;7.72;4.17;;;;;;;18.33;100.00;97392.98;1678728;83;28070;-87
2022/06/09 05:34:11;;;;;;;7.17;4.45;;;;;;;18.42;100.00;97396.39;1683326;83;28005;-86
2022/06/09 05:36:37;;;;;;;8.95;4.60;;;;;;;18.56;100.00;97394.28;1665488;84;28077;-89
2022/06/09 05:44:54;;;;;;;4.65;4.12;;;;;;;18.56;100.00;97395.10;1694903;84;28066;-86
2022/06/09 05:47:23;;;;;;;6.10;4.12;;;;;;;18.54;100.00;97401.11;1705798;83;28135;-87
2022/06/09 05:49:51;;;;;;;6.58;4.40;;;;;;;18.69;100.00;97403.75;1705805;82;28089;-86
2022/06/09 05:52:24;;;;;;;8.23;4.42;;;;;;;18.83;100.00;97403.41;1708373;82;27994;-88
2022/06/09 05:54:51;;;;;;;4.10;3.58;;;;;;;18.79;100.00;97403.79;1662651;85;28122;-85
2022/06/09 05:57:18;;;;;;;8.85;4.90;;;;;;;18.80;100.00;97400.64;1666471;85;28063;-89
2022/06/09 05:59:44;;;;;;;5.83;4.17;;;;;;;18.93;100.00;97402.12;1639551;87;28079;-86
2022/06/09 06:02:11;;;;;;;6.25;4.08;;;;;;;18.95;100.00;97401.44;1671147;84;28163;-86
2022/06/09 06:04:42;;;;;;;7.78;3.90;;;;;;;18.91;100.00;97409.95;1675436;84;28092;-89
2022/06/09 06:07:08;;;;;;;6.08;4.05;;;;;;;18.84;100.00;97405.06;1697553;83;28083;-88
2022/06/09 06:09:34;;;;;;;4.75;3.45;;;;;;;18.79;100.00;97411.74;1697685;84;28121;-86
2022/06/09 06:12:03;;;;;;;6.62;3.98;;;;;;;18.77;100.00;97405.79;1701805;83;43119;-86
2022/06/09 06:14:29;;;;;;;6.35;4.45;;;;;;;18.70;100.00;97405.41;1706261;83;28346;-87
2022/06/09 06:17:04;;;;;;;4.35;3.80;;;;;;;18.64;100.00;97420.70;1708283;83;28001;-89
2022/06/09 06:19:36;;;;;;;5.15;3.98;;;;;;;18.63;100.00;97417.23;1664777;85;28237;-86
2022/06/09 06:22:06;;;;;;;6.92;3.90;;;;;;;18.58;100.00;97418.28;1663910;85;28079;-86
2022/06/09 06:24:36;;;;;;;7.97;3.67;;;;;;;18.62;100.00;97427.50;1666639;85;28077;-85
2022/06/09 06:27:03;;;;;;;7.30;4.20;;;;;;;18.62;100.00;97426.17;1639684;85;28130;-86
2022/06/09 06:29:34;;;;;;;5.03;4.28;;;;;;;18.66;100.00;97426.13;1664944;85;28004;-85
2022/06/09 06:32:03;;;;;;;8.40;4.03;;;;;;;18.72;100.00;97424.58;1660914;84;28136;-85
2022/06/09 06:34:38;;;;;;;6.25;3.98;;;;;;;18.75;100.00;97422.90;1635311;85;28102;-85
2022/06/09 06:37:04;;;;;;;6.85;4.70;;;;;;;18.72;100.00;97424.58;1658900;84;28093;-86
2022/06/09 06:39:31;;;;;;;6.60;4.47;;;;;;;18.71;100.00;97430.91;1692874;82;28136;-86
2022/06/09 06:41:57;;;;;;;5.45;3.55;;;;;;;18.70;100.00;97426.11;1691028;83;28143;-85
2022/06/09 06:44:24;;;;;;;7.70;4.20;;;;;;;18.70;100.00;97424.78;1692149;83;43113;-85
2022/06/09 06:46:50;;;;;;;7.17;3.62;;;;;;;18.76;100.00;97420.58;1690700;83;28159;-85
2022/06/09 06:49:19;;;;;;;3.95;3.47;;;;;;;18.82;100.00;97416.38;1692917;84;28193;-85
2022/06/09 06:51:45;;;;;;;7.15;3.30;;;;;;;18.77;100.00;97413.74;1690629;82;28002;-86
2022/06/09 06:54:11;;;;;;;4.30;3.15;;;;;;;18.85;100.00;97414.66;1693162;84;28167;-86
2022/06/09 06:56:37;;;;;;;3.30;2.90;;;;;;;18.94;100.00;97419.68;1687280;82;28114;-85
2022/06/09 06:59:04;;;;;;;4.30;3.22;;;;;;;19.04;100.00;97416.73;1692304;83;28088;-88
2022/06/09 07:01:31;;;;;;;3.20;2.80;;;;;;;19.10;100.00;97416.00;1692474;82;28128;-89
2022/06/09 07:03:57;;;;;;;4.17;2.72;;;;;;;19.15;100.00;97418.91;1689467;82;28027;-89
2022/06/09 07:06:24;;;;;;;3.12;2.37;;;;;;;19.32;100.00;97419.52;1693675;82;28153;-89
2022/06/09 07:08:51;;;;;;;3.42;2.67;;;;;;;19.59;100.00;97423.64;1693469;82;28124;-85
2022/06/09 07:11:17;;;;;;;3.95;2.83;;;;;;;19.81;100.00;97426.30;1691377;83;28124;-89
2022/06/09 07:13:43;;;;;;;7.72;2.98;;;;;;;20.01;100.00;97428.16;1692721;82;28085;-89
2022/06/09 07:16:10;;;;;;;5.95;3.20;;;;;;;20.18;100.00;97428.70;1686591;83;43042;-88
2022/06/09 07:18:37;;;;;;;4.75;2.67;;;;;;;20.30;100.00;97434.30;1690944;82;28073;-89
2022/06/09 07:21:04;;;;;;;3.42;3.10;;;;;;;20.36;100.00;97430.91;1688843;82;28091;-89
2022/06/09 07:23:31;;;;;;;4.47;2.60;;;;;;;20.41;100.00;97426.65;1689441;83;28149;-89
2022/06/09 07:25:59;;;;;;;4.28;2.80;;;;;;;20.35;100.00;97420.77;1694882;83;28096;-86
2022/06/09 07:28:26;;;;;;;3.80;3.00;;;;;;;20.36;100.00;97420.27;1693690;82;28027;-86
2022/06/09 07:30:56;;;;;;;4.67;2.60;;;;;;;20.38;100.00;97421.73;1690946;82;28074;-86
2022/06/09 07:33:27;;;;;;;3.98;2.60;;;;;;;20.36;100.00;97407.81;1687994;84;28065;-86
2022/06/09 07:35:54;;;;;;;3.90;2.45;;;;;;;20.46;100.00;97416.25;1684092;83;28088;-86
2022/06/09 07:38:21;;;;;;;3.30;2.72;;;;;;;20.49;100.00;97418.22;1684251;82;28096;-86
2022/06/09 07:40:47;;;;;;;4.87;2.70;;;;;;;20.55;100.00;97423.59;1684080;83;28077;-86
2022/06/09 07:43:13;;;;;;;4.53;3.45;;;;;;;20.64;100.00;97418.94;1680538;83;28136;-86
2022/06/09 07:45:40;;;;;;;7.33;3.35;;;;;;;20.80;100.00;97425.27;1681554;82;28085;-86
2022/06/09 07:48:19;;;;;;;6.72;3.20;;;;;;;20.89;100.00;97425.44;1668759;84;28033;-86
2022/06/09 07:50:47;;;;;;;4.30;2.72;;;;;;;20.91;100.00;97430.03;1680068;83;28070;-86
2022/06/09 07:53:14;;;;;;;3.72;2.52;;;;;;;21.01;100.00;97430.49;1679990;84;28163;-86
2022/06/09 07:55:40;;;;;;;4.28;2.80;;;;;;;20.98;100.00;97432.23;1680520;83;28107;-86
2022/06/09 07:58:06;;;;;;;3.47;3.02;;;;;;;21.04;100.00;97428.78;1682180;82;28044;-86
2022/06/09 08:00:34;;;;;;;3.50;2.87;;;;;;;21.00;100.00;97428.84;1678420;83;28209;-86
2022/06/09 08:03:03;;;;;;;5.33;2.80;;;;;;;21.12;100.00;97428.60;1680062;82;28103;-86
2022/06/09 08:05:33;;;;;;;4.03;2.40;;;;;;;21.14;100.00;97423.09;1681073;83;28061;-86
2022/06/09 08:08:02;;;;;;;3.00;2.52;;;;;;;21.28;100.00;97423.48;1688824;82;28138;-86
2022/06/09 08:10:29;;;;;;;3.83;2.85;;;;;;;21.32;100.00;97424.74;1681187;84;28419;-86
2022/06/09 08:13:05;;;;;;;4.12;3.08;;;;;;;21.34;100.00;97431.17;1680236;84;28034;-86
2022/06/09 08:15:32;;;;;;;4.67;2.60;;;;;;;21.35;100.00;97431.49;1681806;83;28188;-87
2022/06/09 08:18:02;;;;;;;3.30;3.00;;;;;;;21.48;100.00;97430.22;1681410;83;28072;-86
2022/06/09 08:20:31;;;;;;;4.50;3.02;;;;;;;21.65;100.00;97433.66;1680136;84;28127;-86
2022/06/09 08:23:13;;;;;;;3.77;3.37;;;;;;;21.78;100.00;97434.17;1679343;83;28044;-86
2022/06/09 08:25:41;;;;;;;4.72;3.10;;;;;;;21.85;100.00;97428.86;1680603;82;28038;-86
2022/06/09 08:28:08;;;;;;;4.50;3.25;;;;;;;21.87;100.00;97436.16;1681343;83;28106;-86
2022/06/09 08:30:37;;;;;;;2.98;2.77;;;;;;;21.81;100.00;97433.78;1680982;83;28131;-86
2022/06/09 08:33:06;;;;;;;3.75;3.17;;;;;;;21.77;100.00;97427.20;1680945;84;28148;-89
2022/06/09 08:35:34;;;;;;;3.30;3.00;;;;;;;21.85;100.00;97424.36;1682691;83;28082;-89
2022/06/09 08:38:08;;;;;;;3.67;3.08;;;;;;;21.95;100.00;97415.48;1686058;82;28170;-89
2022/06/09 08:40:46;;;;;;;4.12;2.80;;;;;;;22.05;100.00;97419.89;1683511;83;28124;-85
2022/06/09 08:43:34;;;;;;;5.87;3.15;;;;;;;22.15;100.00;97418.69;1688062;83;28106;-85
2022/06/09 08:46:21;;;;;;;7.33;3.42;;;;;;;22.13;100.00;97418.88;1659698;84;28093;-85
2022/06/09 08:48:53;;;;;;;6.37;2.77;;;;;;;22.26;100.00;97423.38;1659557;84;28143;-90
2022/06/09 08:51:28;;;;;;;5.50;3.10;;;;;;;22.31;100.00;97428.40;1662337;85;28081;-85
2022/06/09 08:53:59;;;;;;;3.50;2.85;;;;;;;22.41;100.00;97424.83;1689639;82;28109;-86
2022/06/09 08:56:30;;;;;;;2.60;2.40;;;;;;;22.59;100.00;97434.02;1690978;84;28028;-85
2022/06/09 08:59:03;;;;;;;2.75;2.55;;;;;;;22.71;100.00;97433.22;1685501;82;28010;-86
2022/06/09 09:01:48;;;;;;;3.02;2.35;;;;;;;22.68;100.00;97438.13;1689767;82;28033;-86
2022/06/09 09:04:18;;;;;;;2.92;2.72;;;;;;;22.65;100.00;97430.53;1691624;84;28049;-85
2022/06/09 09:07:26;;;;;;;3.85;2.77;;;;;;;22.63;100.00;97427.27;1670588;84;28022;-86
2022/06/09 09:09:55;;;;;;;2.30;2.10;;;;;;;22.63;100.00;97429.42;1683074;84;28081;-86
2022/06/09 09:12:46;;;;;;;4.37;2.75;;;;;;;22.77;100.00;97431.05;1689677;82;28150;-85
2022/06/09 09:15:32;;;;;;;3.33;2.55;;;;;;;22.90;100.00;97426.22;1662303;85;28064;-85
2022/06/09 09:18:07;;;;;;;2.50;2.30;;;;;;;23.00;100.00;97423.10;1632879;86;28083;-86
2022/06/09 09:20:45;;;;;;;4.15;3.00;;;;;;;23.06;100.00;97437.77;1688922;82;28096;-86
2022/06/09 09:23:16;;;;;;;3.75;2.92;;;;;;;23.07;100.00;97425.24;1690052;83;28120;-86
2022/06/09 09:25:57;;;;;;;3.02;2.80;;;;;;;23.10;100.00;97424.80;1637160;84;28074;-85
2022/06/09 09:28:31;;;;;;;3.08;2.87;;;;;;;23.18;100.00;97423.25;1691159;82;28069;-86
2022/06/09 09:31:32;;;;;;;4.58;2.75;;;;;;;23.25;100.00;97420.02;1686230;83;28017;-86
2022/06/09 09:34:02;;;;;;;3.17;2.87;;;;;;;23.34;100.00;97422.77;1691211;84;28002;-89
2022/06/09 09:36:35;;;;;;;2.98;2.77;;;;;;;23.30;100.00;97418.35;1691819;84;28084;-89
2022/06/09 09:39:04;;;;;;;4.60;2.72;;;;;;;23.40;100.00;97423.27;1690088;83;28120;-89
2022/06/09 09:41:39;;;;;;;4.70;2.90;;;;;;;23.50;100.00;97420.98;1678387;82;28012;-89
2022/06/09 09:44:21;;;;;;;3.52;3.22;;;;;;;23.61;100.00;97422.98;1691259;82;28089;-90
2022/06/09 09:46:52;;;;;;;3.58;3.27;;;;;;;23.94;100.00;97424.63;1691156;83;28073;-86
2022/06/09 09:49:29;;;;;;;3.95;2.98;;;;;;;24.23;100.00;97420.00;1691169;84;28109;-86
2022/06/09 09:52:05;;;;;;;5.90;3.22;;;;;;;24.40;100.00;97417.59;1688352;83;28064;-86
2022/06/09 09:54:41;;;;;;;4.45;3.08;;;;;;;24.56;100.00;97416.52;1653636;84;28147;-86
2022/06/09 09:57:21;;;;;;;3.33;3.02;;;;;;;24.46;100.00;97420.22;1689679;82;28048;-85
2022/06/09 09:59:53;;;;;;;3.62;2.77;;;;;;;24.37;100.00;97421.54;1692667;82;28005;-86
2022/06/09 10:08:41;;;;;;;5.00;3.20;;;;;;;24.54;100.00;97415.11;1691906;82;28073;-89
2022/06/09 10:14:31;;;;;;;3.08;2.83;;;;;;;24.58;100.00;97411.77;1692426;83;28147;-86
2022/06/09 10:16:58;;;;;;;3.58;3.08;;;;;;;24.46;100.00;97405.50;1692495;83;28117;-86
2022/06/09 10:19:27;;;;;;;4.25;2.75;;;;;;;24.24;100.00;97409.61;1689514;83;28147;-86
2022/06/09 10:22:00;;;;;;;3.72;3.02;;;;;;;24.12;100.00;97409.97;1691796;82;28144;-86
2022/06/09 10:24:39;;;;;;;3.92;3.05;;;;;;;24.02;100.00;97401.63;1687003;82;28124;-85
2022/06/09 10:27:10;;;;;;;4.20;2.62;;;;;;;23.95;100.00;97404.86;1689608;83;28077;-86
2022/06/09 10:29:51;;;;;;;3.35;2.80;;;;;;;23.91;100.00;97403.14;1688678;82;28002;-86
2022/06/09 10:32:30;;;;;;;3.10;2.70;;;;;;;23.91;100.00;97406.33;1689261;84;28072;-86
2022/06/09 10:35:35;;;;;;;3.17;2.50;;;;;;;23.96;100.00;97409.17;1689712;84;28093;-86
2022/06/09 10:38:14;;;;;;;3.55;2.45;;;;;;;24.00;100.00;97406.39;1691226;83;28108;-86
2022/06/09 10:40:44;;;;;;;3.58;2.87;;;;;;;24.07;100.00;97401.79;1690203;82;28113;-85
2022/06/09 10:43:20;;;;;;;3.27;2.98;;;;;;;24.09;100.00;97403.73;1691884;83;28113;-85
2022/06/09 10:46:11;;;;;;;4.20;2.85;;;;;;;24.09;100.00;97407.75;1690249;83;28154;-85
2022/06/09 10:55:16;;;;;;;3.80;3.40;;;;;;;24.12;100.00;97404.63;1690228;82;28179;-86
2022/06/09 10:58:16;;;;;;;3.67;3.37;;;;;;;24.18;100.00;97409.14;1689386;83;28081;-86
2022/06/09 11:00:45;;;;;;;4.33;3.50;;;;;;;24.17;100.00;97410.14;1689893;83;28063;-86
2022/06/09 11:03:15;;;;;;;3.95;3.17;;;;;;;24.30;100.00;97406.58;1691798;82;28203;-86
2022/06/09 11:06:02;;;;;;;3.75;3.40;;;;;;;24.33;100.00;97403.48;1690376;82;28131;-86
2022/06/09 11:09:05;;;;;;;3.70;3.25;;;;;;;24.32;100.00;97408.01;1685590;82;28084;-87
2022/06/09 11:11:47;;;;;;;4.72;3.77;;;;;;;24.36;100.00;97410.54;1688215;82;28159;-86
2022/06/09 11:14:16;;;;;;;3.70;3.40;;;;;;;24.35;100.00;97407.55;1662163;84;28404;-86
2022/06/09 11:16:52;;;;;;;3.75;3.45;;;;;;;24.37;100.00;97400.14;1653938;85;28497;-86
2022/06/09 11:19:58;;;;;;;4.20;3.65;;;;;;;24.34;100.00;97400.56;1666973;85;28213;-87
2022/06/09 11:22:33;;;;;;;5.62;3.62;;;;;;;24.28;100.00;97397.42;1695840;83;28130;-87
2022/06/09 11:25:37;;;;;;;4.17;3.77;;;;;;;24.37;100.00;97392.64;1692590;82;28100;-87
2022/06/09 11:28:07;;;;;;;3.80;3.50;;;;;;;24.41;100.00;97393.31;1694186;83;28086;-86
2022/06/09 11:30:58;;;;;;;4.12;3.30;;;;;;;24.40;100.00;97389.51;1693474;83;28127;-86
2022/06/09 11:33:31;;;;;;;3.70;3.35;;;;;;;24.38;100.00;97388.41;1691319;82;28103;-86
2022/06/09 11:36:14;;;;;;;3.47;3.17;;;;;;;24.40;100.00;97373.46;1694123;83;28085;-86
2022/06/09 11:39:07;;;;;;;3.77;3.42;;;;;;;24.51;100.00;97360.70;1692494;82;28176;-86
2022/06/09 11:41:37;;;;;;;4.53;3.33;;;;;;;24.68;100.00;97363.61;1688644;83;28155;-86
2022/06/09 11:44:25;;;;;;;3.60;3.30;;;;;;;24.75;100.00;97371.87;1697187;84;28139;-86
2022/06/09 11:47:07;;;;;;;3.50;3.20;;;;;;;24.75;100.00;97375.89;1714950;82;28043;-87
2022/06/09 11:49:45;;;;;;;3.95;3.17;;;;;;;24.80;100.00;97379.23;1728252;82;28124;-87
2022/06/09 11:52:18;;;;;;;3.33;3.02;;;;;;;24.79;100.00;97379.75;1721509;82;28056;-86
2022/06/09 11:54:51;;;;;;;6.15;3.42;;;;;;;24.73;100.00;97376.63;1717783;82;28019;-86
2022/06/09 11:57:50;;;;;;;3.70;3.15;;;;;;;24.71;100.00;97385.93;1720986;82;28084;-89
2022/06/09 12:00:28;;;;;;;4.22;3.35;;;;;;;24.70;100.00;97376.27;1737694;81;28092;-87
2022/06/09 12:03:15;;;;;;;4.08;3.50;;;;;;;24.71;100.00;97365.86;1725245;82;28018;-87
2022/06/09 12:06:00;;;;;;;3.98;3.27;;;;;;;24.84;100.00;97356.33;1724135;82;28101;-87
2022/06/09 12:08:49;;;;;;;4.10;3.67;;;;;;;24.93;100.00;97351.81;1725340;82;28078;-87